Currently 62°F in Temecula, California, USA
62°F
81°F / 53°F
calm
0.00"
Monday, December 11, 2017 6:36 PM PST

Temecula, California Weather Summary
Last 36 Hours

Temperature Winds Hourly Humidity Dewpoint
Time Report Norm Report Norm Max Gusts Precip. Rpt. Norm Rpt. Norm Pressure
1Mon 06:36 PM  62.2°F  55°F  calm  2 mph  3 mph  0.00"  29%  68%  28°F  45°F  30.26"
Mon 06:00 PM  66.2°F  57°F  calm  3 mph  7 mph  0.00"  23%  66%  26°F  45°F  30.25"
Mon 05:00 PM  72.2°F  59°F  calm  3 mph  5 mph  0.00"  18%  61%  24°F  45°F  30.23"
Mon 04:00 PM  79.3°F  64°F  3 mph W  4 mph  8 mph  0.00"  10%  52%  15°F  45°F  30.19"
Mon 03:00 PM  80.4°F  67°F  calm  5 mph  7 mph  0.00"  9%  46%  15°F  45°F  30.18"
2Mon 02:41 PM  81.1°F  67°F  calm  5 mph  4 mph  ----  10%  46%  16°F  44°F  30.19"
Mon 02:00 PM  80.7°F  67°F  1 mph SW  5 mph  7 mph  0.00"  10%  45%  16°F  44°F  30.19"
Mon 01:00 PM  78.2°F  66°F  2 mph NW  4 mph  6 mph  0.00"  11%  47%  18°F  44°F  30.20"
Mon 12:00 PM  75.2°F  63°F  calm  4 mph  5 mph  0.00"  15%  52%  23°F  45°F  30.23"
Mon 11:00 AM  70.7°F  59°F  calm  3 mph  5 mph  0.00"  18%  60%  24°F  45°F  30.28"
Mon 10:00 AM  66.2°F  54°F  calm  2 mph  2 mph  0.00"  24%  71%  26°F  44°F  30.30"
Mon 09:00 AM  59.3°F  48°F  calm  2 mph  4 mph  0.00"  30%  82%  27°F  43°F  30.30"
Mon 08:00 AM  54.1°F  44°F  calm  1 mph  2 mph  0.00"  36%  87%  26°F  40°F  30.28"
3Mon 07:26 AM  53.0°F  43°F  calm  1 mph  none  ----  37%  88%  27°F  40°F  30.27"
Mon 07:00 AM  54.0°F  43°F  calm  1 mph  7 mph  0.00"  33%  88%  25°F  39°F  30.27"
Mon 06:00 AM  53.2°F  43°F  3 mph W  1 mph  6 mph  0.00"  35%  87%  25°F  40°F  30.26"
Mon 05:00 AM  54.6°F  44°F  2 mph W  1 mph  6 mph  0.00"  33%  86%  24°F  40°F  30.24"
Mon 04:00 AM  55.4°F  44°F  2 mph W  1 mph  4 mph  0.00"  31%  85%  24°F  40°F  30.24"
Mon 03:00 AM  56.9°F  45°F  calm  1 mph  4 mph  0.00"  29%  84%  24°F  40°F  30.25"
Mon 02:00 AM  57.8°F  46°F  calm  1 mph  4 mph  0.00"  28%  83%  24°F  41°F  30.25"
Mon 01:00 AM  59.9°F  47°F  calm  1 mph  6 mph  0.00"  26%  81%  23°F  41°F  30.25"
Mon 12:00 AM  66.8°F  48°F  3 mph W  1 mph  11 mph  0.00"  18%  80%  21°F  42°F  30.24"
Sun 11:00 PM  68.7°F  49°F  5 mph E  1 mph  14 mph  0.00"  15%  78%  17°F  42°F  30.25"
Sun 10:00 PM  68.1°F  50°F  4 mph NE  2 mph  14 mph  0.00"  16%  76%  18°F  42°F  30.25"
Sun 09:00 PM  67.4°F  51°F  7 mph E  1 mph  12 mph  0.00"  16%  74%  17°F  43°F  30.24"
Sun 08:00 PM  68.6°F  53°F  calm  2 mph  11 mph  0.00"  15%  72%  18°F  44°F  30.22"
Sun 07:00 PM  70.3°F  55°F  1 mph E  2 mph  10 mph  0.00"  14%  69%  17°F  44°F  30.21"
Sun 06:00 PM  72.5°F  57°F  4 mph NE  3 mph  17 mph  0.00"  13%  66%  16°F  45°F  30.20"
Sun 05:00 PM  72.9°F  60°F  4 mph NE  3 mph  13 mph  0.00"  13%  60%  18°F  45°F  30.19"
Sun 04:00 PM  75.0°F  64°F  7 mph NE  4 mph  16 mph  0.00"  13%  51%  18°F  45°F  30.16"
Sun 03:00 PM  77.0°F  67°F  5 mph NE  5 mph  26 mph  0.00"  12%  46%  18°F  44°F  30.15"
Sun 02:00 PM  78.2°F  67°F  14 mph NE  5 mph  25 mph  0.00"  11%  44%  18°F  44°F  30.14"
Sun 01:00 PM  78.8°F  66°F  13 mph NE  4 mph  26 mph  0.00"  11%  46%  18°F  44°F  30.15"
Sun 12:00 PM  80.0°F  64°F  6 mph NE  3 mph  24 mph  0.00"  11%  51%  18°F  44°F  30.17"
Sun 11:00 AM  78.4°F  60°F  11 mph NE  3 mph  23 mph  0.00"  11%  59%  18°F  45°F  30.22"
Sun 10:00 AM  76.7°F  54°F  13 mph NE  2 mph  23 mph  0.00"  13%  70%  20°F  44°F  30.24"
Sun 09:00 AM  74.6°F  48°F  11 mph E  1 mph  18 mph  0.00"  14%  81%  21°F  42°F  30.25"
Sun 08:00 AM  70.4°F  44°F  7 mph SE  1 mph  17 mph  0.00"  16%  87%  20°F  40°F  30.24"
Sun 07:00 AM  59.3°F  42°F  3 mph W  1 mph  10 mph  0.00"  25%  88%  22°F  39°F  30.24"

  1. Current weather data. No green row appears if the current weather data is also the high or low for the current day.
  2. High temperature for the current day.
  3. Low temperature for the current day.

The Temecula weather pages are a service of WeatherCurrents. Temecula, California is located in the Temecula Valley, in southwestern Riverside County, along the Interstate 15 highway. The Temecula Valley's rolling hills are home to the Temecula wine country, vineyards, golf courses, a casino resort, and Old Town Temecula.
Copyright ©Mon Dec 11 18:36:41 PST 2017  WeatherCurrents. All rights reserved. - Submit questions and comments - Privacy Policy

This page automatically refreshes every 10 minutes.